createdAt,value
2023-06-04T00:00:38.307Z,98790.78
2023-06-04T00:03:05.842Z,98786.84
2023-06-04T00:05:33.347Z,98783.18
2023-06-04T00:08:01.101Z,98787.70
2023-06-04T00:10:28.497Z,98786.56
2023-06-04T00:12:55.947Z,98783.27
2023-06-04T00:15:23.494Z,98783.98
2023-06-04T00:17:50.877Z,98786.55
2023-06-04T00:20:18.972Z,98787.34
2023-06-04T00:22:46.423Z,98787.96
2023-06-04T00:25:13.919Z,98786.05
2023-06-04T00:27:41.401Z,98783.82
2023-06-04T00:30:09.400Z,98785.09
2023-06-04T00:32:38.044Z,98785.95
2023-06-04T00:35:06.118Z,98781.14
2023-06-04T00:37:33.974Z,98775.55
2023-06-04T00:40:01.690Z,98773.49
2023-06-04T00:42:29.123Z,98768.61
2023-06-04T00:44:58.837Z,98766.90
2023-06-04T00:47:26.391Z,98767.05
2023-06-04T00:49:57.157Z,98764.73
2023-06-04T00:52:24.584Z,98770.54
2023-06-04T00:54:52.664Z,98770.61
2023-06-04T00:57:20.115Z,98772.01
2023-06-04T00:59:47.721Z,98773.71
2023-06-04T01:02:21.312Z,98770.89
2023-06-04T01:05:37.898Z,98766.18
2023-06-04T01:08:05.600Z,98759.22
2023-06-04T01:10:33.389Z,98758.55
2023-06-04T01:13:00.892Z,98760.81
2023-06-04T01:15:28.407Z,98764.64
2023-06-04T01:18:04.055Z,98764.29
2023-06-04T01:20:39.558Z,98762.20
2023-06-04T01:23:36.443Z,98760.73
2023-06-04T01:26:06.996Z,98761.45
2023-06-04T01:28:35.872Z,98758.44
2023-06-04T01:31:04.300Z,98758.98
2023-06-04T01:33:32.204Z,98758.95
2023-06-04T01:35:59.705Z,98762.33
2023-06-04T01:38:27.339Z,98764.44
2023-06-04T01:41:02.637Z,98765.17
2023-06-04T01:43:30.677Z,98768.60
2023-06-04T01:45:58.596Z,98767.45
2023-06-04T01:48:26.149Z,98768.06
2023-06-04T01:50:53.626Z,98765.16
2023-06-04T01:53:21.401Z,98763.23
2023-06-04T01:55:50.398Z,98766.30
2023-06-04T01:58:27.902Z,98763.55
2023-06-04T02:00:56.312Z,98762.95
2023-06-04T02:03:24.188Z,98766.36
2023-06-04T02:05:51.805Z,98766.09
2023-06-04T02:08:20.292Z,98768.58
2023-06-04T02:10:48.904Z,98770.33
2023-06-04T02:13:16.657Z,98767.27
2023-06-04T02:15:44.202Z,98769.85
2023-06-04T02:18:18.124Z,98773.39
2023-06-04T02:20:46.240Z,98774.69
2023-06-04T02:23:13.824Z,98775.45
2023-06-04T02:25:41.271Z,98775.52
2023-06-04T02:28:09.266Z,98780.66
2023-06-04T02:30:37.097Z,98781.59
2023-06-04T02:33:05.080Z,98782.77
2023-06-04T02:35:32.828Z,98780.27
2023-06-04T02:38:00.848Z,98784.82
2023-06-04T02:40:30.810Z,98790.60
2023-06-04T02:42:58.260Z,98783.07
2023-06-04T02:45:26.355Z,98777.80
2023-06-04T02:47:53.920Z,98778.12
2023-06-04T02:50:21.529Z,98778.80
2023-06-04T02:52:48.932Z,98776.76
2023-06-04T02:55:16.954Z,98771.14
2023-06-04T02:57:44.653Z,98760.23
2023-06-04T03:00:13.821Z,98749.12
2023-06-04T03:02:48.029Z,98749.90
2023-06-04T03:05:16.851Z,98757.64
2023-06-04T03:07:46.257Z,98757.73
2023-06-04T03:10:14.475Z,98763.11
2023-06-04T03:12:42.030Z,98763.06
2023-06-04T03:15:10.180Z,98767.53
2023-06-04T03:17:38.391Z,98770.29
2023-06-04T03:20:08.263Z,98772.41
2023-06-04T03:22:36.821Z,98770.92
2023-06-04T03:25:05.491Z,98768.16
2023-06-04T03:27:33.513Z,98769.73
2023-06-04T03:30:01.096Z,98775.29
2023-06-04T03:32:32.568Z,98781.23
2023-06-04T03:35:01.384Z,98779.24
2023-06-04T03:37:29.106Z,98782.36
2023-06-04T03:39:56.764Z,98779.03
2023-06-04T03:42:24.160Z,98779.68
2023-06-04T03:44:51.907Z,98779.08
2023-06-04T03:47:20.936Z,98780.35
2023-06-04T03:49:48.485Z,98775.09
2023-06-04T03:52:16.221Z,98774.83
2023-06-04T03:54:43.696Z,98773.40
2023-06-04T03:57:11.268Z,98779.06
2023-06-04T03:59:38.674Z,98779.47
2023-06-04T04:02:07.120Z,98779.89
2023-06-04T04:04:34.947Z,98779.69
2023-06-04T04:07:03.248Z,98782.00
2023-06-04T04:09:31.030Z,98787.77
2023-06-04T04:11:58.553Z,98790.37
2023-06-04T04:14:26.392Z,98798.21
2023-06-04T04:16:53.896Z,98798.95
2023-06-04T04:19:21.894Z,98804.98
2023-06-04T04:21:49.645Z,98816.09
2023-06-04T04:24:25.129Z,98820.55
2023-06-04T04:26:55.786Z,98819.34
2023-06-04T04:29:23.812Z,98811.38
2023-06-04T04:31:51.978Z,98804.45
2023-06-04T04:34:22.849Z,98809.95
2023-06-04T04:36:53.975Z,98815.27
2023-06-04T04:39:25.818Z,98811.33
2023-06-04T04:41:55.600Z,98806.71
2023-06-04T04:44:23.226Z,98802.19
2023-06-04T04:46:51.254Z,98798.96
2023-06-04T04:49:18.996Z,98794.73
2023-06-04T04:51:46.393Z,98783.56
2023-06-04T04:54:14.145Z,98778.34
2023-06-04T04:56:42.577Z,98778.30
2023-06-04T05:01:38.461Z,98771.40
2023-06-04T05:04:08.777Z,98777.84
2023-06-04T05:06:38.759Z,98778.86
2023-06-04T05:09:06.890Z,98773.73
2023-06-04T05:11:34.354Z,98772.17
2023-06-04T05:14:03.851Z,98773.77
2023-06-04T05:16:31.966Z,98773.83
2023-06-04T05:18:59.896Z,98771.36
2023-06-04T05:21:30.251Z,98770.70
2023-06-04T05:24:01.879Z,98774.05
2023-06-04T05:26:34.339Z,98770.75
2023-06-04T05:29:06.844Z,98772.30
2023-06-04T05:31:38.125Z,98777.61
2023-06-04T05:34:06.452Z,98777.40
2023-06-04T05:36:35.550Z,98781.80
2023-06-04T05:39:05.438Z,98782.71
2023-06-04T05:41:38.571Z,98788.77
2023-06-04T05:44:06.604Z,98781.60
2023-06-04T05:46:34.162Z,98779.92
2023-06-04T05:49:02.487Z,98775.80
2023-06-04T05:51:30.381Z,98775.83
2023-06-04T05:53:58.017Z,98773.75
2023-06-04T05:56:26.868Z,98769.91
2023-06-04T05:58:54.966Z,98770.67
2023-06-04T06:01:24.631Z,98769.48
2023-06-04T06:03:52.747Z,98770.17
2023-06-04T06:06:22.158Z,98770.59
2023-06-04T06:08:50.806Z,98771.13
2023-06-04T06:11:19.006Z,98771.50
2023-06-04T06:13:46.749Z,98778.60
2023-06-04T06:16:15.022Z,98779.55
2023-06-04T06:18:42.470Z,98788.61
2023-06-04T06:21:09.878Z,98787.02
2023-06-04T06:23:37.844Z,98779.40
2023-06-04T06:26:09.371Z,98777.84
2023-06-04T06:28:43.538Z,98777.26
2023-06-04T06:31:11.897Z,98773.52
2023-06-04T06:33:42.732Z,98772.75
2023-06-04T06:36:20.214Z,98774.85
2023-06-04T06:38:47.715Z,98778.80
2023-06-04T06:41:15.186Z,98781.09
2023-06-04T06:43:42.631Z,98783.14
2023-06-04T06:46:15.011Z,98784.95
2023-06-04T06:48:46.311Z,98786.40
2023-06-04T06:51:14.083Z,98783.58
2023-06-04T06:53:44.646Z,98780.97
2023-06-04T06:56:12.077Z,98784.54
2023-06-04T06:58:39.478Z,98781.45
2023-06-04T07:01:07.626Z,98783.27
2023-06-04T07:03:35.345Z,98781.29
2023-06-04T07:06:03.451Z,98782.30
2023-06-04T07:08:30.941Z,98781.23
2023-06-04T07:10:58.862Z,98778.29
2023-06-04T07:13:26.498Z,98777.84
2023-06-04T07:15:54.366Z,98779.68
2023-06-04T07:18:21.759Z,98784.37
2023-06-04T07:20:49.171Z,98783.38
2023-06-04T07:23:16.664Z,98781.81
2023-06-04T07:25:44.121Z,98785.19
2023-06-04T07:28:11.551Z,98785.80
2023-06-04T07:30:39.434Z,98790.61
2023-06-04T07:33:07.602Z,98795.17
2023-06-04T07:35:35.144Z,98792.08
2023-06-04T07:38:02.735Z,98783.81
2023-06-04T07:40:30.233Z,98786.16
2023-06-04T07:42:57.638Z,98788.02
2023-06-04T07:45:26.315Z,98783.75
2023-06-04T07:47:54.588Z,98779.58
2023-06-04T07:50:21.962Z,98778.30
2023-06-04T07:52:49.431Z,98775.64
2023-06-04T07:55:16.865Z,98777.42
2023-06-04T07:57:44.860Z,98772.93
2023-06-04T08:00:19.097Z,98774.65
2023-06-04T08:02:46.851Z,98771.20
2023-06-04T08:05:15.028Z,98769.96
2023-06-04T08:07:42.848Z,98765.84
2023-06-04T08:10:10.991Z,98769.20
2023-06-04T08:12:38.498Z,98772.20
2023-06-04T08:15:06.808Z,98767.14
2023-06-04T08:17:34.272Z,98767.66
2023-06-04T08:20:02.145Z,98764.31
2023-06-04T08:22:30.428Z,98764.92
2023-06-04T08:24:57.853Z,98761.52
2023-06-04T08:27:25.407Z,98758.48
2023-06-04T08:29:53.415Z,98755.55
2023-06-04T08:32:20.848Z,98756.33
2023-06-04T08:34:48.374Z,98756.21
2023-06-04T08:37:16.478Z,98760.83
2023-06-04T08:39:43.962Z,98761.81
2023-06-04T08:42:17.200Z,98765.67
2023-06-04T08:44:44.848Z,98761.67
2023-06-04T08:47:12.279Z,98760.21
2023-06-04T08:49:39.736Z,98761.09
2023-06-04T08:52:07.445Z,98759.38
2023-06-04T08:54:35.185Z,98759.52
2023-06-04T08:57:03.648Z,98760.35
2023-06-04T08:59:31.206Z,98761.61
2023-06-04T09:01:58.697Z,98764.92
2023-06-04T09:04:26.144Z,98764.35
2023-06-04T09:06:53.880Z,98762.38
2023-06-04T09:09:23.573Z,98761.05
2023-06-04T09:11:58.186Z,98758.15
2023-06-04T09:14:25.937Z,98753.89
2023-06-04T09:16:55.443Z,98751.67
2023-06-04T09:19:23.252Z,98747.42
2023-06-04T09:21:58.478Z,98742.88
2023-06-04T09:24:27.224Z,98742.04
2023-06-04T09:26:54.851Z,98738.30
2023-06-04T09:29:22.303Z,98739.16
2023-06-04T09:31:58.795Z,98730.41
2023-06-04T09:34:32.732Z,98731.98
2023-06-04T09:37:00.724Z,98728.05
2023-06-04T09:39:28.347Z,98726.83
2023-06-04T09:42:01.777Z,98724.72
2023-06-04T09:44:32.794Z,98721.83
2023-06-04T09:47:00.320Z,98721.61
2023-06-04T09:49:28.021Z,98716.21
2023-06-04T09:51:57.644Z,98712.54
2023-06-04T09:54:25.021Z,98717.61
2023-06-04T09:56:52.539Z,98716.73
2023-06-04T09:59:19.945Z,98713.29
2023-06-04T10:01:47.524Z,98710.78
2023-06-04T10:04:15.040Z,98710.57
2023-06-04T10:06:42.669Z,98711.90
2023-06-04T10:09:10.706Z,98707.37
2023-06-04T10:11:42.738Z,98700.89
2023-06-04T10:14:19.162Z,98699.20
2023-06-04T10:16:46.678Z,98698.81
2023-06-04T10:19:14.104Z,98701.38
2023-06-04T10:21:41.553Z,98699.41
2023-06-04T10:24:09.220Z,98692.08
2023-06-04T10:26:36.797Z,98687.70
2023-06-04T10:29:04.377Z,98683.35
2023-06-04T10:31:31.865Z,98678.53
2023-06-04T10:33:59.471Z,98675.23
2023-06-04T10:36:27.179Z,98671.86
2023-06-04T10:38:56.407Z,98668.38
2023-06-04T10:41:24.741Z,98664.20
2023-06-04T10:43:53.557Z,98663.95
2023-06-04T10:48:53.579Z,98666.95
2023-06-04T10:51:34.442Z,98668.45
2023-06-04T10:54:03.534Z,98668.77
2023-06-04T10:56:33.376Z,98665.98
2023-06-04T10:59:01.185Z,98662.50
2023-06-04T11:01:30.054Z,98658.40
2023-06-04T11:03:57.740Z,98655.58
2023-06-04T11:06:29.180Z,98652.02
2023-06-04T11:09:06.947Z,98652.02
2023-06-04T11:11:34.532Z,98648.20
2023-06-04T11:14:10.130Z,98639.48
2023-06-04T11:16:37.667Z,98634.05
2023-06-04T11:19:05.188Z,98636.27
2023-06-04T11:21:35.561Z,98637.29
2023-06-04T11:24:03.229Z,98634.23
2023-06-04T11:26:40.410Z,98629.98
2023-06-04T11:29:16.179Z,98634.01
2023-06-04T11:31:44.239Z,98630.42
2023-06-04T11:34:14.938Z,98628.14
2023-06-04T11:36:42.421Z,98625.02
2023-06-04T11:39:10.040Z,98626.38
2023-06-04T11:41:37.519Z,98628.39
2023-06-04T11:44:08.235Z,98626.67
2023-06-04T11:46:41.196Z,98626.58
2023-06-04T11:49:08.798Z,98628.33
2023-06-04T11:51:37.290Z,98627.80
2023-06-04T11:54:04.917Z,98626.30
2023-06-04T11:56:32.361Z,98623.80
2023-06-04T11:59:00.205Z,98630.19
2023-06-04T12:01:30.115Z,98632.77
2023-06-04T12:03:57.740Z,98631.27
2023-06-04T12:06:25.271Z,98624.08
2023-06-04T12:08:54.047Z,98624.18
2023-06-04T12:11:30.006Z,98621.73
2023-06-04T12:13:58.278Z,98615.91
2023-06-04T12:16:26.208Z,98613.48
2023-06-04T12:18:54.012Z,98617.55
2023-06-04T12:21:28.619Z,98623.38
2023-06-04T12:24:14.441Z,98623.21
2023-06-04T12:26:42.954Z,98620.86
2023-06-04T12:29:18.860Z,98619.79
2023-06-04T12:31:47.358Z,98613.52
2023-06-04T12:34:14.999Z,98618.20
2023-06-04T12:36:44.157Z,98611.21
2023-06-04T12:39:11.612Z,98609.64
2023-06-04T12:41:39.132Z,98609.67
2023-06-04T12:44:06.697Z,98612.13
2023-06-04T12:46:34.244Z,98613.23
2023-06-04T12:49:01.746Z,98611.48
2023-06-04T12:51:29.225Z,98612.42
2023-06-04T12:53:56.762Z,98610.78
2023-06-04T13:02:54.044Z,98611.85
2023-06-04T13:05:20.788Z,98609.83
2023-06-04T13:07:48.445Z,98600.61
2023-06-04T13:10:15.805Z,98602.13
2023-06-04T13:12:42.843Z,98601.66
2023-06-04T13:15:10.703Z,98600.58
2023-06-04T13:17:37.642Z,98601.86
2023-06-04T13:20:06.078Z,98597.98
2023-06-04T13:22:33.414Z,98596.49
2023-06-04T13:25:00.468Z,98597.25
2023-06-04T13:33:57.035Z,98598.48
2023-06-04T13:36:24.650Z,98598.27
2023-06-04T13:38:53.885Z,98597.53
2023-06-04T13:41:22.484Z,98597.02
2023-06-04T13:43:50.546Z,98600.71
2023-06-04T13:46:18.211Z,98600.70
2023-06-04T13:48:45.804Z,98593.52
2023-06-04T13:51:13.402Z,98589.54
2023-06-04T13:53:40.979Z,98587.56
2023-06-04T13:56:08.486Z,98585.52
2023-06-04T13:58:36.026Z,98587.02
2023-06-04T14:01:03.585Z,98589.67
2023-06-04T14:03:31.200Z,98588.09
2023-06-04T14:05:58.773Z,98583.23
2023-06-04T14:08:26.268Z,98579.30
2023-06-04T14:10:56.257Z,98580.63
2023-06-04T14:13:23.825Z,98583.20
2023-06-04T14:15:52.169Z,98579.23
2023-06-04T14:18:19.796Z,98578.86
2023-06-04T14:20:48.345Z,98579.98
2023-06-04T14:23:17.776Z,98576.58
2023-06-04T14:25:45.319Z,98577.29
2023-06-04T14:28:12.904Z,98574.10
2023-06-04T14:30:40.356Z,98571.23
2023-06-04T14:33:07.869Z,98570.40
2023-06-04T14:35:35.325Z,98569.56
2023-06-04T14:38:03.284Z,98566.14
2023-06-04T14:40:30.759Z,98565.67
2023-06-04T14:42:58.830Z,98568.39
2023-06-04T14:45:26.425Z,98570.05
2023-06-04T14:48:06.439Z,98573.29
2023-06-04T14:50:41.299Z,98571.34
2023-06-04T14:53:09.331Z,98572.30
2023-06-04T14:55:37.136Z,98571.53
2023-06-04T14:58:05.113Z,98570.10
2023-06-04T15:00:33.391Z,98573.58
2023-06-04T15:03:04.410Z,98571.55
2023-06-04T15:05:35.298Z,98569.05
2023-06-04T15:08:03.152Z,98570.94
2023-06-04T15:10:31.044Z,98571.87
2023-06-04T15:12:58.581Z,98571.69
2023-06-04T15:15:26.614Z,98568.98
2023-06-04T15:17:54.338Z,98572.46
2023-06-04T15:20:26.263Z,98568.98
2023-06-04T15:22:54.291Z,98566.47
2023-06-04T15:25:22.006Z,98564.95
2023-06-04T15:27:49.663Z,98564.60
2023-06-04T15:30:18.606Z,98566.98
2023-06-04T15:32:46.472Z,98572.33
2023-06-04T15:35:14.009Z,98572.64
2023-06-04T15:37:41.544Z,98565.88
2023-06-04T15:40:10.582Z,98566.75
2023-06-04T15:42:38.091Z,98566.98
2023-06-04T15:45:05.920Z,98562.09
2023-06-04T15:47:33.375Z,98558.92
2023-06-04T15:50:03.189Z,98559.71
2023-06-04T15:52:30.847Z,98563.79
2023-06-04T15:54:58.337Z,98564.89
2023-06-04T15:57:26.480Z,98562.78
2023-06-04T15:59:53.970Z,98557.92
2023-06-04T16:02:21.423Z,98554.58
2023-06-04T16:04:49.104Z,98554.13
2023-06-04T16:07:16.668Z,98553.73
2023-06-04T16:09:44.240Z,98559.04
2023-06-04T16:12:11.843Z,98558.79
2023-06-04T16:14:39.215Z,98562.14
2023-06-04T16:17:06.797Z,98561.11
2023-06-04T16:19:34.270Z,98561.89
2023-06-04T16:22:01.763Z,98557.38
2023-06-04T16:24:29.254Z,98561.52
2023-06-04T16:26:56.809Z,98562.58
2023-06-04T16:29:24.284Z,98560.42
2023-06-04T16:31:52.097Z,98559.35
2023-06-04T16:34:19.654Z,98559.05
2023-06-04T16:36:47.286Z,98555.38
2023-06-04T16:39:14.769Z,98558.21
2023-06-04T16:41:42.210Z,98559.11
2023-06-04T16:44:09.674Z,98555.19
2023-06-04T16:46:42.151Z,98556.98
2023-06-04T16:49:09.656Z,98554.34
2023-06-04T16:51:38.557Z,98554.48
2023-06-04T16:54:06.100Z,98555.67
2023-06-04T16:56:33.568Z,98556.86
2023-06-04T16:59:01.122Z,98556.47
2023-06-04T17:01:28.763Z,98555.92
2023-06-04T17:03:56.373Z,98559.62
2023-06-04T17:06:23.927Z,98561.42
2023-06-04T17:08:51.490Z,98567.09
2023-06-04T17:11:19.547Z,98572.10
2023-06-04T17:13:47.009Z,98572.78
2023-06-04T17:16:14.796Z,98573.20
2023-06-04T17:18:42.209Z,98573.38
2023-06-04T17:21:11.054Z,98574.27
2023-06-04T17:23:39.498Z,98569.41
2023-06-04T17:26:07.833Z,98568.02
2023-06-04T17:28:35.620Z,98573.06
2023-06-04T17:31:04.074Z,98574.45
2023-06-04T17:33:34.554Z,98572.55
2023-06-04T17:36:02.547Z,98577.02
2023-06-04T17:38:31.238Z,98579.92
2023-06-04T17:40:58.689Z,98577.05
2023-06-04T17:43:26.154Z,98578.93
2023-06-04T17:45:54.933Z,98580.70
2023-06-04T17:48:23.527Z,98580.73
2023-06-04T17:50:50.991Z,98583.87
2023-06-04T17:53:18.469Z,98584.52
2023-06-04T17:55:46.136Z,98585.59
2023-06-04T17:58:13.587Z,98587.58
2023-06-04T18:00:44.487Z,98585.13
2023-06-04T18:03:12.758Z,98586.34
2023-06-04T18:05:41.065Z,98589.57
2023-06-04T18:08:10.582Z,98591.54
2023-06-04T18:10:39.808Z,98595.48
2023-06-04T18:13:07.444Z,98598.02
2023-06-04T18:15:35.004Z,98601.69
2023-06-04T18:18:02.498Z,98601.08
2023-06-04T18:20:30.267Z,98602.73
2023-06-04T18:22:58.236Z,98609.92
2023-06-04T18:25:26.467Z,98613.81
2023-06-04T18:27:54.117Z,98619.50
2023-06-04T18:30:21.608Z,98620.22
2023-06-04T18:32:49.786Z,98622.14
2023-06-04T18:35:17.325Z,98620.45
2023-06-04T18:37:44.804Z,98621.43
2023-06-04T18:40:13.522Z,98628.09
2023-06-04T18:42:41.387Z,98629.14
2023-06-04T18:45:10.592Z,98630.11
2023-06-04T18:47:38.483Z,98638.73
2023-06-04T18:50:06.977Z,98637.73
2023-06-04T18:52:34.764Z,98642.63
2023-06-04T18:55:02.267Z,98638.86
2023-06-04T18:57:29.743Z,98641.52
2023-06-04T18:59:57.348Z,98643.59
2023-06-04T19:02:24.746Z,98644.93
2023-06-04T19:04:52.328Z,98644.82
2023-06-04T19:07:22.558Z,98644.64
2023-06-04T19:09:50.116Z,98645.05
2023-06-04T19:12:17.888Z,98646.73
2023-06-04T19:14:45.438Z,98649.45
2023-06-04T19:17:19.939Z,98654.77
2023-06-04T19:19:48.601Z,98658.95
2023-06-04T19:22:16.384Z,98663.29
2023-06-04T19:24:43.930Z,98663.97
2023-06-04T19:27:11.421Z,98664.69
2023-06-04T19:29:43.741Z,98664.98
2023-06-04T19:32:11.671Z,98667.73
2023-06-04T19:34:39.195Z,98668.61
2023-06-04T19:37:06.710Z,98671.39
2023-06-04T19:39:34.262Z,98670.58
2023-06-04T19:42:01.778Z,98669.39
2023-06-04T19:44:29.264Z,98669.45
2023-06-04T19:46:57.257Z,98673.66
2023-06-04T19:49:24.752Z,98671.05
2023-06-04T19:51:52.431Z,98674.14
2023-06-04T19:54:19.861Z,98675.55
2023-06-04T19:56:47.340Z,98676.08
2023-06-04T19:59:16.296Z,98677.33
2023-06-04T20:01:44.194Z,98678.85
2023-06-04T20:04:12.581Z,98681.55
2023-06-04T20:06:40.311Z,98681.67
2023-06-04T20:09:11.022Z,98688.80
2023-06-04T20:11:38.619Z,98688.61
2023-06-04T20:14:06.874Z,98685.08
2023-06-04T20:16:34.389Z,98689.98
2023-06-04T20:19:01.824Z,98688.83
2023-06-04T20:21:34.010Z,98685.75
2023-06-04T20:24:03.377Z,98687.90
2023-06-04T20:26:30.901Z,98684.46
2023-06-04T20:28:58.394Z,98688.45
2023-06-04T20:31:27.676Z,98691.30
2023-06-04T20:33:58.363Z,98692.47
2023-06-04T20:36:25.866Z,98698.16
2023-06-04T20:38:53.490Z,98697.95
2023-06-04T20:41:22.344Z,98698.19
2023-06-04T20:43:54.830Z,98701.95
2023-06-04T20:46:22.559Z,98699.64
2023-06-04T20:48:50.247Z,98705.59
2023-06-04T20:51:17.716Z,98705.05
2023-06-04T20:53:48.527Z,98706.55
2023-06-04T20:56:16.396Z,98708.43
2023-06-04T20:58:43.846Z,98704.65
2023-06-04T21:01:12.685Z,98706.60
2023-06-04T21:03:40.334Z,98704.41
2023-06-04T21:06:08.081Z,98707.79
2023-06-04T21:08:35.622Z,98705.38
2023-06-04T21:11:03.119Z,98706.52
2023-06-04T21:13:36.452Z,98705.15
2023-06-04T21:16:03.975Z,98713.53
2023-06-04T21:18:31.448Z,98712.20
2023-06-04T21:20:58.910Z,98712.58
2023-06-04T21:23:26.962Z,98705.92
2023-06-04T21:25:54.376Z,98706.89
2023-06-04T21:28:21.822Z,98709.67
2023-06-04T21:30:49.302Z,98710.23
2023-06-04T21:33:16.705Z,98705.50
2023-06-04T21:35:44.058Z,98702.98
2023-06-04T21:38:11.534Z,98698.24
2023-06-04T21:40:38.962Z,98703.92
2023-06-04T21:43:06.358Z,98708.14
2023-06-04T21:45:34.330Z,98708.05
2023-06-04T21:48:02.448Z,98708.02
2023-06-04T21:50:29.900Z,98710.41
2023-06-04T21:52:57.331Z,98707.06
2023-06-04T21:55:25.229Z,98706.73
2023-06-04T21:57:52.672Z,98707.44
2023-06-04T22:00:20.324Z,98704.77
2023-06-04T22:02:47.964Z,98708.08
2023-06-04T22:05:15.503Z,98711.66
2023-06-04T22:07:42.956Z,98709.69
2023-06-04T22:10:10.662Z,98708.54
2023-06-04T22:12:39.141Z,98705.78
2023-06-04T22:15:07.666Z,98704.55
2023-06-04T22:17:35.078Z,98708.08
2023-06-04T22:20:02.961Z,98711.51
2023-06-04T22:22:30.780Z,98717.23
2023-06-04T22:24:58.526Z,98716.92
2023-06-04T22:27:26.515Z,98718.46
2023-06-04T22:29:53.931Z,98722.14
2023-06-04T22:32:21.338Z,98723.09
2023-06-04T22:34:49.139Z,98722.10
2023-06-04T22:37:16.582Z,98722.46
2023-06-04T22:39:43.975Z,98727.70
2023-06-04T22:42:11.405Z,98731.58
2023-06-04T22:44:39.105Z,98731.23
2023-06-04T22:47:09.344Z,98727.48
2023-06-04T22:49:36.938Z,98726.51
2023-06-04T22:52:04.547Z,98731.63
2023-06-04T22:54:32.033Z,98734.06
2023-06-04T22:56:59.669Z,98735.95
2023-06-04T22:59:27.610Z,98737.09
2023-06-04T23:01:55.007Z,98741.51
2023-06-04T23:06:04.975Z,98736.52
2023-06-04T23:08:33.128Z,98732.94
2023-06-04T23:11:00.607Z,98729.20
2023-06-04T23:13:28.640Z,98731.69
2023-06-04T23:15:58.266Z,98732.57
2023-06-04T23:18:26.322Z,98732.59
2023-06-04T23:20:53.920Z,98734.41
2023-06-04T23:31:00.657Z,98720.73
2023-06-04T23:33:28.196Z,98724.71
2023-06-04T23:35:55.966Z,98718.45
2023-06-04T23:38:23.409Z,98718.64
2023-06-04T23:40:50.949Z,98717.94
2023-06-04T23:43:18.441Z,98714.93
2023-06-04T23:45:46.180Z,98720.72
2023-06-04T23:48:13.802Z,98721.59
2023-06-04T23:50:41.627Z,98721.50
2023-06-04T23:53:09.108Z,98719.55
2023-06-04T23:55:38.388Z,98720.55
2023-06-04T23:58:06.654Z,98722.66
